sensor_id;sensor_type;location;lat;lon;timestamp;temperature;humidity
57108;DHT22;42987;52.916;6.542;2022-07-31T00:01:49;18.70;99.90
57108;DHT22;42987;52.916;6.542;2022-07-31T00:04:16;18.70;99.90
57108;DHT22;42987;52.916;6.542;2022-07-31T00:06:42;18.60;99.90
57108;DHT22;42987;52.916;6.542;2022-07-31T00:09:09;18.60;99.90
57108;DHT22;42987;52.916;6.542;2022-07-31T00:11:35;18.60;99.90
57108;DHT22;42987;52.916;6.542;2022-07-31T00:14:01;18.50;99.90
57108;DHT22;42987;52.916;6.542;2022-07-31T00:16:27;18.60;99.90
57108;DHT22;42987;52.916;6.542;2022-07-31T00:18:56;18.50;99.90
57108;DHT22;42987;52.916;6.542;2022-07-31T00:21:21;18.50;99.90
57108;DHT22;42987;52.916;6.542;2022-07-31T00:23:47;18.50;99.90
57108;DHT22;42987;52.916;6.542;2022-07-31T00:26:13;18.50;99.90
57108;DHT22;42987;52.916;6.542;2022-07-31T00:28:39;18.50;99.90
57108;DHT22;42987;52.916;6.542;2022-07-31T00:31:04;18.40;99.90
57108;DHT22;42987;52.916;6.542;2022-07-31T00:33:30;18.40;99.90
57108;DHT22;42987;52.916;6.542;2022-07-31T00:35:56;18.30;99.90
57108;DHT22;42987;52.916;6.542;2022-07-31T00:38:22;18.30;99.90
57108;DHT22;42987;52.916;6.542;2022-07-31T00:40:49;18.30;99.90
57108;DHT22;42987;52.916;6.542;2022-07-31T00:43:15;18.20;99.90
57108;DHT22;42987;52.916;6.542;2022-07-31T00:45:43;18.20;99.90
57108;DHT22;42987;52.916;6.542;2022-07-31T00:48:09;18.20;99.90
57108;DHT22;42987;52.916;6.542;2022-07-31T00:50:35;18.20;99.90
57108;DHT22;42987;52.916;6.542;2022-07-31T00:53:01;18.10;99.90
57108;DHT22;42987;52.916;6.542;2022-07-31T00:55:30;18.10;99.90
57108;DHT22;42987;52.916;6.542;2022-07-31T00:57:56;18.10;99.90
57108;DHT22;42987;52.916;6.542;2022-07-31T01:00:22;18.10;99.90
57108;DHT22;42987;52.916;6.542;2022-07-31T01:02:51;18.10;99.90
57108;DHT22;42987;52.916;6.542;2022-07-31T01:05:17;18.10;99.90
57108;DHT22;42987;52.916;6.542;2022-07-31T01:07:44;18.10;99.90
57108;DHT22;42987;52.916;6.542;2022-07-31T01:10:14;18.10;99.90
57108;DHT22;42987;52.916;6.542;2022-07-31T01:12:50;18.10;99.90
57108;DHT22;42987;52.916;6.542;2022-07-31T01:15:19;18.10;99.90
57108;DHT22;42987;52.916;6.542;2022-07-31T01:17:46;18.10;99.90
57108;DHT22;42987;52.916;6.542;2022-07-31T01:20:13;18.10;99.90
57108;DHT22;42987;52.916;6.542;2022-07-31T01:23:17;18.10;99.90
57108;DHT22;42987;52.916;6.542;2022-07-31T01:31:38;18.10;99.90
57108;DHT22;42987;52.916;6.542;2022-07-31T01:34:23;18.10;99.90
57108;DHT22;42987;52.916;6.542;2022-07-31T01:37:20;18.10;99.90
57108;DHT22;42987;52.916;6.542;2022-07-31T01:40:00;18.20;99.90
57108;DHT22;42987;52.916;6.542;2022-07-31T01:42:28;18.10;99.90
57108;DHT22;42987;52.916;6.542;2022-07-31T01:44:57;18.10;99.90
57108;DHT22;42987;52.916;6.542;2022-07-31T01:47:25;18.20;99.90
57108;DHT22;42987;52.916;6.542;2022-07-31T01:49:54;18.10;99.90
57108;DHT22;42987;52.916;6.542;2022-07-31T01:52:21;18.10;99.90
57108;DHT22;42987;52.916;6.542;2022-07-31T01:54:51;18.20;99.90
57108;DHT22;42987;52.916;6.542;2022-07-31T01:57:18;18.20;99.90
57108;DHT22;42987;52.916;6.542;2022-07-31T01:59:47;18.10;99.90
57108;DHT22;42987;52.916;6.542;2022-07-31T02:02:14;18.20;99.90
57108;DHT22;42987;52.916;6.542;2022-07-31T02:04:40;18.10;99.90
57108;DHT22;42987;52.916;6.542;2022-07-31T02:07:06;18.20;99.90
57108;DHT22;42987;52.916;6.542;2022-07-31T02:09:34;18.20;99.90
57108;DHT22;42987;52.916;6.542;2022-07-31T02:12:00;18.20;99.90
57108;DHT22;42987;52.916;6.542;2022-07-31T02:14:27;18.20;99.90
57108;DHT22;42987;52.916;6.542;2022-07-31T02:16:57;18.20;99.90
57108;DHT22;42987;52.916;6.542;2022-07-31T02:19:26;18.20;99.90
57108;DHT22;42987;52.916;6.542;2022-07-31T02:21:53;18.20;99.90
57108;DHT22;42987;52.916;6.542;2022-07-31T02:24:20;18.20;99.90
57108;DHT22;42987;52.916;6.542;2022-07-31T02:26:47;18.20;99.90
57108;DHT22;42987;52.916;6.542;2022-07-31T02:29:15;18.20;99.90
57108;DHT22;42987;52.916;6.542;2022-07-31T02:31:43;18.20;99.90
57108;DHT22;42987;52.916;6.542;2022-07-31T02:34:12;18.20;99.90
57108;DHT22;42987;52.916;6.542;2022-07-31T02:36:39;18.20;99.90
57108;DHT22;42987;52.916;6.542;2022-07-31T02:39:06;18.10;99.90
57108;DHT22;42987;52.916;6.542;2022-07-31T02:41:34;18.10;99.90
57108;DHT22;42987;52.916;6.542;2022-07-31T02:44:01;18.10;99.90
57108;DHT22;42987;52.916;6.542;2022-07-31T02:46:27;18.10;99.90
57108;DHT22;42987;52.916;6.542;2022-07-31T02:48:54;18.10;99.90
57108;DHT22;42987;52.916;6.542;2022-07-31T02:51:22;18.10;99.90
57108;DHT22;42987;52.916;6.542;2022-07-31T02:53:48;18.10;99.90
57108;DHT22;42987;52.916;6.542;2022-07-31T02:56:15;18.10;99.90
57108;DHT22;42987;52.916;6.542;2022-07-31T02:58:42;18.10;99.90
57108;DHT22;42987;52.916;6.542;2022-07-31T03:01:08;18.10;99.90
57108;DHT22;42987;52.916;6.542;2022-07-31T03:03:34;18.00;99.90
57108;DHT22;42987;52.916;6.542;2022-07-31T03:06:00;18.10;99.90
57108;DHT22;42987;52.916;6.542;2022-07-31T03:08:27;18.00;99.90
57108;DHT22;42987;52.916;6.542;2022-07-31T03:10:56;18.00;99.90
57108;DHT22;42987;52.916;6.542;2022-07-31T03:13:23;18.00;99.90
57108;DHT22;42987;52.916;6.542;2022-07-31T03:15:50;18.00;99.90
57108;DHT22;42987;52.916;6.542;2022-07-31T03:18:19;18.00;99.90
57108;DHT22;42987;52.916;6.542;2022-07-31T03:20:46;18.00;99.90
57108;DHT22;42987;52.916;6.542;2022-07-31T03:23:18;18.00;99.90
57108;DHT22;42987;52.916;6.542;2022-07-31T03:25:49;18.00;99.90
57108;DHT22;42987;52.916;6.542;2022-07-31T03:28:17;18.00;99.90
57108;DHT22;42987;52.916;6.542;2022-07-31T03:30:44;18.00;99.90
57108;DHT22;42987;52.916;6.542;2022-07-31T03:33:10;18.00;99.90
57108;DHT22;42987;52.916;6.542;2022-07-31T03:35:36;17.90;99.90
57108;DHT22;42987;52.916;6.542;2022-07-31T03:38:02;17.90;99.90
57108;DHT22;42987;52.916;6.542;2022-07-31T03:40:30;17.90;99.90
57108;DHT22;42987;52.916;6.542;2022-07-31T03:42:57;17.90;99.90
57108;DHT22;42987;52.916;6.542;2022-07-31T03:45:24;17.90;99.90
57108;DHT22;42987;52.916;6.542;2022-07-31T03:47:51;17.90;99.90
57108;DHT22;42987;52.916;6.542;2022-07-31T03:50:17;17.90;99.90
57108;DHT22;42987;52.916;6.542;2022-07-31T03:52:46;17.90;99.90
57108;DHT22;42987;52.916;6.542;2022-07-31T03:55:13;17.80;99.90
57108;DHT22;42987;52.916;6.542;2022-07-31T03:57:39;17.80;99.90
57108;DHT22;42987;52.916;6.542;2022-07-31T04:00:08;17.80;99.90
57108;DHT22;42987;52.916;6.542;2022-07-31T04:02:34;17.70;99.90
57108;DHT22;42987;52.916;6.542;2022-07-31T04:05:00;17.70;99.90
57108;DHT22;42987;52.916;6.542;2022-07-31T04:07:26;17.70;99.90
57108;DHT22;42987;52.916;6.542;2022-07-31T04:09:52;17.70;99.90
57108;DHT22;42987;52.916;6.542;2022-07-31T04:12:18;17.70;99.90
57108;DHT22;42987;52.916;6.542;2022-07-31T04:14:44;17.70;99.90
57108;DHT22;42987;52.916;6.542;2022-07-31T04:17:10;17.70;99.90
57108;DHT22;42987;52.916;6.542;2022-07-31T04:19:36;17.70;99.90
57108;DHT22;42987;52.916;6.542;2022-07-31T04:22:02;17.70;99.90
57108;DHT22;42987;52.916;6.542;2022-07-31T04:24:28;17.80;99.90
57108;DHT22;42987;52.916;6.542;2022-07-31T04:26:55;17.70;99.90
57108;DHT22;42987;52.916;6.542;2022-07-31T04:29:21;17.80;99.90
57108;DHT22;42987;52.916;6.542;2022-07-31T04:31:47;17.80;99.90
57108;DHT22;42987;52.916;6.542;2022-07-31T04:34:13;17.80;99.90
57108;DHT22;42987;52.916;6.542;2022-07-31T04:36:39;17.80;99.90
57108;DHT22;42987;52.916;6.542;2022-07-31T04:39:05;17.80;99.90
57108;DHT22;42987;52.916;6.542;2022-07-31T04:41:30;17.80;99.90
57108;DHT22;42987;52.916;6.542;2022-07-31T04:43:57;17.80;99.90
57108;DHT22;42987;52.916;6.542;2022-07-31T04:46:26;17.80;99.90
57108;DHT22;42987;52.916;6.542;2022-07-31T04:48:51;17.80;99.90
57108;DHT22;42987;52.916;6.542;2022-07-31T04:51:22;17.80;99.90
57108;DHT22;42987;52.916;6.542;2022-07-31T04:53:49;17.80;99.90
57108;DHT22;42987;52.916;6.542;2022-07-31T04:56:16;17.80;99.90
57108;DHT22;42987;52.916;6.542;2022-07-31T04:59:05;17.80;99.90
57108;DHT22;42987;52.916;6.542;2022-07-31T05:01:31;17.80;99.90
57108;DHT22;42987;52.916;6.542;2022-07-31T05:03:57;17.80;99.90
57108;DHT22;42987;52.916;6.542;2022-07-31T05:09:00;17.80;99.90
57108;DHT22;42987;52.916;6.542;2022-07-31T05:11:26;17.80;99.90
57108;DHT22;42987;52.916;6.542;2022-07-31T05:13:55;17.80;99.90
57108;DHT22;42987;52.916;6.542;2022-07-31T05:16:21;17.80;99.90
57108;DHT22;42987;52.916;6.542;2022-07-31T05:18:49;17.80;99.90
57108;DHT22;42987;52.916;6.542;2022-07-31T05:21:17;17.80;99.90
57108;DHT22;42987;52.916;6.542;2022-07-31T05:23:45;17.90;99.90
57108;DHT22;42987;52.916;6.542;2022-07-31T05:26:12;17.90;99.90
57108;DHT22;42987;52.916;6.542;2022-07-31T05:28:38;17.90;99.90
57108;DHT22;42987;52.916;6.542;2022-07-31T05:31:06;18.00;99.90
57108;DHT22;42987;52.916;6.542;2022-07-31T05:33:32;18.00;99.90
57108;DHT22;42987;52.916;6.542;2022-07-31T05:35:58;18.00;99.90
57108;DHT22;42987;52.916;6.542;2022-07-31T05:38:25;18.10;99.90
57108;DHT22;42987;52.916;6.542;2022-07-31T05:40:51;18.10;99.90
57108;DHT22;42987;52.916;6.542;2022-07-31T05:43:17;18.10;99.90
57108;DHT22;42987;52.916;6.542;2022-07-31T05:45:43;18.10;99.90
57108;DHT22;42987;52.916;6.542;2022-07-31T05:48:15;18.10;99.90
57108;DHT22;42987;52.916;6.542;2022-07-31T05:50:46;18.10;99.90
57108;DHT22;42987;52.916;6.542;2022-07-31T05:53:12;18.20;99.90
57108;DHT22;42987;52.916;6.542;2022-07-31T05:55:42;18.20;99.90
57108;DHT22;42987;52.916;6.542;2022-07-31T05:58:09;18.20;99.90
57108;DHT22;42987;52.916;6.542;2022-07-31T06:00:35;18.20;99.90
57108;DHT22;42987;52.916;6.542;2022-07-31T06:03:01;18.30;99.90
57108;DHT22;42987;52.916;6.542;2022-07-31T06:05:28;18.30;99.90
57108;DHT22;42987;52.916;6.542;2022-07-31T06:07:55;18.30;99.90
57108;DHT22;42987;52.916;6.542;2022-07-31T06:10:22;18.30;99.90
57108;DHT22;42987;52.916;6.542;2022-07-31T06:12:48;18.30;99.90
57108;DHT22;42987;52.916;6.542;2022-07-31T06:15:15;18.30;99.90
57108;DHT22;42987;52.916;6.542;2022-07-31T06:17:41;18.30;99.90
57108;DHT22;42987;52.916;6.542;2022-07-31T06:20:08;18.40;99.90
57108;DHT22;42987;52.916;6.542;2022-07-31T06:22:34;18.30;99.90
57108;DHT22;42987;52.916;6.542;2022-07-31T06:25:00;18.40;99.90
57108;DHT22;42987;52.916;6.542;2022-07-31T06:27:26;18.40;99.90
57108;DHT22;42987;52.916;6.542;2022-07-31T06:29:53;18.40;99.90
57108;DHT22;42987;52.916;6.542;2022-07-31T06:32:20;18.40;99.90
57108;DHT22;42987;52.916;6.542;2022-07-31T06:34:46;18.50;99.90
57108;DHT22;42987;52.916;6.542;2022-07-31T06:37:12;18.40;99.90
57108;DHT22;42987;52.916;6.542;2022-07-31T06:39:37;18.50;99.90
57108;DHT22;42987;52.916;6.542;2022-07-31T06:42:03;18.50;99.90
57108;DHT22;42987;52.916;6.542;2022-07-31T06:44:30;18.60;99.90
57108;DHT22;42987;52.916;6.542;2022-07-31T06:46:56;18.60;99.90
57108;DHT22;42987;52.916;6.542;2022-07-31T06:49:22;18.70;99.90
57108;DHT22;42987;52.916;6.542;2022-07-31T06:51:48;18.70;99.90
57108;DHT22;42987;52.916;6.542;2022-07-31T06:54:14;18.80;99.90
57108;DHT22;42987;52.916;6.542;2022-07-31T06:56:40;18.80;99.90
57108;DHT22;42987;52.916;6.542;2022-07-31T06:59:09;18.80;99.90
57108;DHT22;42987;52.916;6.542;2022-07-31T07:01:35;19.00;99.90
57108;DHT22;42987;52.916;6.542;2022-07-31T07:04:01;18.90;99.90
57108;DHT22;42987;52.916;6.542;2022-07-31T07:06:26;19.00;99.90
57108;DHT22;42987;52.916;6.542;2022-07-31T07:08:55;19.00;99.90
57108;DHT22;42987;52.916;6.542;2022-07-31T07:11:21;19.10;99.90
57108;DHT22;42987;52.916;6.542;2022-07-31T07:13:47;19.10;99.90
57108;DHT22;42987;52.916;6.542;2022-07-31T07:16:14;19.20;99.90
57108;DHT22;42987;52.916;6.542;2022-07-31T07:18:40;19.20;99.90
57108;DHT22;42987;52.916;6.542;2022-07-31T07:21:07;19.20;99.90
57108;DHT22;42987;52.916;6.542;2022-07-31T07:23:33;19.30;99.90
57108;DHT22;42987;52.916;6.542;2022-07-31T07:25:59;19.30;99.90
57108;DHT22;42987;52.916;6.542;2022-07-31T07:28:25;19.40;99.90
57108;DHT22;42987;52.916;6.542;2022-07-31T07:30:51;19.40;99.90
57108;DHT22;42987;52.916;6.542;2022-07-31T07:33:16;19.40;99.90
57108;DHT22;42987;52.916;6.542;2022-07-31T07:35:42;19.50;99.90
57108;DHT22;42987;52.916;6.542;2022-07-31T07:38:08;19.50;99.90
57108;DHT22;42987;52.916;6.542;2022-07-31T07:40:34;19.60;99.90
57108;DHT22;42987;52.916;6.542;2022-07-31T07:43:00;19.60;99.90
57108;DHT22;42987;52.916;6.542;2022-07-31T07:45:26;19.60;99.90
57108;DHT22;42987;52.916;6.542;2022-07-31T07:47:52;19.70;99.90
57108;DHT22;42987;52.916;6.542;2022-07-31T07:50:21;19.80;99.90
57108;DHT22;42987;52.916;6.542;2022-07-31T07:52:47;19.80;99.90
57108;DHT22;42987;52.916;6.542;2022-07-31T07:55:12;19.90;99.90
57108;DHT22;42987;52.916;6.542;2022-07-31T07:57:38;20.00;99.90
57108;DHT22;42987;52.916;6.542;2022-07-31T08:00:09;20.00;99.90
57108;DHT22;42987;52.916;6.542;2022-07-31T08:02:35;20.10;99.90
57108;DHT22;42987;52.916;6.542;2022-07-31T08:05:01;20.10;99.90
57108;DHT22;42987;52.916;6.542;2022-07-31T08:07:28;20.10;99.90
57108;DHT22;42987;52.916;6.542;2022-07-31T08:09:55;20.20;99.90
57108;DHT22;42987;52.916;6.542;2022-07-31T08:12:21;20.20;99.90
57108;DHT22;42987;52.916;6.542;2022-07-31T08:14:47;20.20;99.90
57108;DHT22;42987;52.916;6.542;2022-07-31T08:17:12;20.30;99.90
57108;DHT22;42987;52.916;6.542;2022-07-31T08:19:39;20.30;99.90
57108;DHT22;42987;52.916;6.542;2022-07-31T08:22:05;20.40;99.90
57108;DHT22;42987;52.916;6.542;2022-07-31T08:24:31;20.40;99.90
57108;DHT22;42987;52.916;6.542;2022-07-31T08:26:56;20.50;99.90
57108;DHT22;42987;52.916;6.542;2022-07-31T08:29:41;20.50;99.90
57108;DHT22;42987;52.916;6.542;2022-07-31T08:32:07;20.60;99.90
57108;DHT22;42987;52.916;6.542;2022-07-31T08:34:32;20.60;99.90
57108;DHT22;42987;52.916;6.542;2022-07-31T08:36:58;20.70;99.90
57108;DHT22;42987;52.916;6.542;2022-07-31T08:39:24;20.70;99.90
57108;DHT22;42987;52.916;6.542;2022-07-31T08:41:50;20.80;99.90
57108;DHT22;42987;52.916;6.542;2022-07-31T08:44:16;20.80;99.90
57108;DHT22;42987;52.916;6.542;2022-07-31T08:46:43;20.90;99.90
57108;DHT22;42987;52.916;6.542;2022-07-31T08:49:12;20.90;99.90
57108;DHT22;42987;52.916;6.542;2022-07-31T08:51:42;20.90;99.90
57108;DHT22;42987;52.916;6.542;2022-07-31T08:54:09;20.90;99.90
57108;DHT22;42987;52.916;6.542;2022-07-31T08:56:37;20.80;99.90
57108;DHT22;42987;52.916;6.542;2022-07-31T08:59:03;20.80;99.90
57108;DHT22;42987;52.916;6.542;2022-07-31T09:01:32;20.80;99.90
57108;DHT22;42987;52.916;6.542;2022-07-31T09:03:58;20.70;99.90
57108;DHT22;42987;52.916;6.542;2022-07-31T09:06:24;20.60;99.90
57108;DHT22;42987;52.916;6.542;2022-07-31T09:08:50;20.50;99.90
57108;DHT22;42987;52.916;6.542;2022-07-31T09:11:16;20.50;99.90
57108;DHT22;42987;52.916;6.542;2022-07-31T09:13:57;20.40;99.90
57108;DHT22;42987;52.916;6.542;2022-07-31T09:16:23;20.40;99.90
57108;DHT22;42987;52.916;6.542;2022-07-31T09:18:59;20.30;99.90
57108;DHT22;42987;52.916;6.542;2022-07-31T09:21:25;20.30;99.90
57108;DHT22;42987;52.916;6.542;2022-07-31T09:23:51;20.30;99.90
57108;DHT22;42987;52.916;6.542;2022-07-31T09:26:19;20.20;99.90
57108;DHT22;42987;52.916;6.542;2022-07-31T09:28:46;20.20;99.90
57108;DHT22;42987;52.916;6.542;2022-07-31T09:31:13;20.10;99.90
57108;DHT22;42987;52.916;6.542;2022-07-31T09:33:45;20.10;99.90
57108;DHT22;42987;52.916;6.542;2022-07-31T09:36:11;20.10;99.90
57108;DHT22;42987;52.916;6.542;2022-07-31T09:38:39;20.00;99.90
57108;DHT22;42987;52.916;6.542;2022-07-31T09:41:12;20.10;99.90
57108;DHT22;42987;52.916;6.542;2022-07-31T09:43:39;20.10;99.90
57108;DHT22;42987;52.916;6.542;2022-07-31T09:46:07;20.10;99.90
57108;DHT22;42987;52.916;6.542;2022-07-31T09:48:34;20.10;99.90
57108;DHT22;42987;52.916;6.542;2022-07-31T09:51:06;20.20;99.90
57108;DHT22;42987;52.916;6.542;2022-07-31T09:56:10;20.30;99.90
57108;DHT22;42987;52.916;6.542;2022-07-31T09:58:40;20.30;99.90
57108;DHT22;42987;52.916;6.542;2022-07-31T10:01:11;20.30;99.90
57108;DHT22;42987;52.916;6.542;2022-07-31T10:03:39;20.30;99.90
57108;DHT22;42987;52.916;6.542;2022-07-31T10:06:07;20.30;99.90
57108;DHT22;42987;52.916;6.542;2022-07-31T10:08:36;20.20;99.90
57108;DHT22;42987;52.916;6.542;2022-07-31T10:11:05;20.10;99.90
57108;DHT22;42987;52.916;6.542;2022-07-31T10:13:35;20.10;99.90
57108;DHT22;42987;52.916;6.542;2022-07-31T10:16:04;20.00;99.90
57108;DHT22;42987;52.916;6.542;2022-07-31T10:18:35;20.00;99.90
57108;DHT22;42987;52.916;6.542;2022-07-31T10:21:04;20.00;99.90
57108;DHT22;42987;52.916;6.542;2022-07-31T10:23:33;20.00;99.90
57108;DHT22;42987;52.916;6.542;2022-07-31T10:26:00;20.00;99.90
57108;DHT22;42987;52.916;6.542;2022-07-31T10:28:27;20.00;99.90
57108;DHT22;42987;52.916;6.542;2022-07-31T10:30:55;20.00;99.90
57108;DHT22;42987;52.916;6.542;2022-07-31T10:33:21;20.00;99.90
57108;DHT22;42987;52.916;6.542;2022-07-31T10:36:04;19.90;99.90
57108;DHT22;42987;52.916;6.542;2022-07-31T10:41:22;20.00;99.90
57108;DHT22;42987;52.916;6.542;2022-07-31T10:43:59;20.00;99.90
57108;DHT22;42987;52.916;6.542;2022-07-31T10:46:31;20.00;99.90
57108;DHT22;42987;52.916;6.542;2022-07-31T10:48:57;20.00;99.90
57108;DHT22;42987;52.916;6.542;2022-07-31T10:51:23;20.00;99.90
57108;DHT22;42987;52.916;6.542;2022-07-31T10:53:55;20.00;99.90
57108;DHT22;42987;52.916;6.542;2022-07-31T10:56:25;20.00;99.90
57108;DHT22;42987;52.916;6.542;2022-07-31T10:58:57;20.10;99.90
57108;DHT22;42987;52.916;6.542;2022-07-31T11:01:23;20.10;99.90
57108;DHT22;42987;52.916;6.542;2022-07-31T11:03:59;20.10;99.90
57108;DHT22;42987;52.916;6.542;2022-07-31T11:06:40;20.10;99.90
57108;DHT22;42987;52.916;6.542;2022-07-31T11:09:06;20.10;99.90
57108;DHT22;42987;52.916;6.542;2022-07-31T11:11:36;20.00;99.90
57108;DHT22;42987;52.916;6.542;2022-07-31T11:14:02;20.00;99.90
57108;DHT22;42987;52.916;6.542;2022-07-31T11:16:28;19.90;99.90
57108;DHT22;42987;52.916;6.542;2022-07-31T11:18:58;19.80;99.90
57108;DHT22;42987;52.916;6.542;2022-07-31T11:21:34;19.80;99.90
57108;DHT22;42987;52.916;6.542;2022-07-31T11:24:00;19.70;99.90
57108;DHT22;42987;52.916;6.542;2022-07-31T11:26:27;19.70;99.90
57108;DHT22;42987;52.916;6.542;2022-07-31T11:28:53;19.60;99.90
57108;DHT22;42987;52.916;6.542;2022-07-31T11:31:19;19.50;99.90
57108;DHT22;42987;52.916;6.542;2022-07-31T11:33:46;19.50;99.90
57108;DHT22;42987;52.916;6.542;2022-07-31T11:36:14;19.40;99.90
57108;DHT22;42987;52.916;6.542;2022-07-31T11:38:43;19.40;99.90
57108;DHT22;42987;52.916;6.542;2022-07-31T11:41:09;19.30;99.90
57108;DHT22;42987;52.916;6.542;2022-07-31T11:43:36;19.30;99.90
57108;DHT22;42987;52.916;6.542;2022-07-31T11:46:05;19.30;99.90
57108;DHT22;42987;52.916;6.542;2022-07-31T11:48:31;19.30;99.90
57108;DHT22;42987;52.916;6.542;2022-07-31T11:50:57;19.30;99.90
57108;DHT22;42987;52.916;6.542;2022-07-31T11:53:25;19.20;99.90
57108;DHT22;42987;52.916;6.542;2022-07-31T11:55:59;19.20;99.90
57108;DHT22;42987;52.916;6.542;2022-07-31T11:58:27;19.20;99.90
57108;DHT22;42987;52.916;6.542;2022-07-31T12:00:55;19.20;99.90
57108;DHT22;42987;52.916;6.542;2022-07-31T12:03:34;19.20;99.90
57108;DHT22;42987;52.916;6.542;2022-07-31T12:06:05;19.20;99.90
57108;DHT22;42987;52.916;6.542;2022-07-31T12:08:31;19.20;99.90
57108;DHT22;42987;52.916;6.542;2022-07-31T12:11:00;19.20;99.90
57108;DHT22;42987;52.916;6.542;2022-07-31T12:13:27;19.20;99.90
57108;DHT22;42987;52.916;6.542;2022-07-31T12:16:00;19.20;99.90
57108;DHT22;42987;52.916;6.542;2022-07-31T12:18:28;19.10;99.90
57108;DHT22;42987;52.916;6.542;2022-07-31T12:21:02;19.20;99.90
57108;DHT22;42987;52.916;6.542;2022-07-31T12:23:45;19.10;99.90
57108;DHT22;42987;52.916;6.542;2022-07-31T12:26:34;19.20;99.90
57108;DHT22;42987;52.916;6.542;2022-07-31T12:29:10;19.10;99.90
57108;DHT22;42987;52.916;6.542;2022-07-31T12:31:46;19.10;99.90
57108;DHT22;42987;52.916;6.542;2022-07-31T12:39:29;19.20;99.90
57108;DHT22;42987;52.916;6.542;2022-07-31T12:41:55;19.30;99.90
57108;DHT22;42987;52.916;6.542;2022-07-31T12:44:21;19.40;99.90
57108;DHT22;42987;52.916;6.542;2022-07-31T12:46:47;19.30;99.90
57108;DHT22;42987;52.916;6.542;2022-07-31T12:49:13;19.40;99.90
57108;DHT22;42987;52.916;6.542;2022-07-31T12:51:39;19.40;99.90
57108;DHT22;42987;52.916;6.542;2022-07-31T12:54:06;19.40;99.90
57108;DHT22;42987;52.916;6.542;2022-07-31T12:56:37;19.40;99.90
57108;DHT22;42987;52.916;6.542;2022-07-31T12:59:03;19.40;99.90
57108;DHT22;42987;52.916;6.542;2022-07-31T13:01:30;19.30;99.90
57108;DHT22;42987;52.916;6.542;2022-07-31T13:03:56;19.30;99.90
57108;DHT22;42987;52.916;6.542;2022-07-31T13:06:25;19.30;99.90
57108;DHT22;42987;52.916;6.542;2022-07-31T13:08:51;19.30;99.90
57108;DHT22;42987;52.916;6.542;2022-07-31T13:11:17;19.30;99.90
57108;DHT22;42987;52.916;6.542;2022-07-31T13:13:43;19.40;99.90
57108;DHT22;42987;52.916;6.542;2022-07-31T13:16:09;19.40;99.90
57108;DHT22;42987;52.916;6.542;2022-07-31T13:18:34;19.40;99.90
57108;DHT22;42987;52.916;6.542;2022-07-31T13:21:03;19.40;99.90
57108;DHT22;42987;52.916;6.542;2022-07-31T13:23:29;19.40;99.90
57108;DHT22;42987;52.916;6.542;2022-07-31T13:25:55;19.40;99.90
57108;DHT22;42987;52.916;6.542;2022-07-31T13:28:22;19.40;99.90
57108;DHT22;42987;52.916;6.542;2022-07-31T13:30:48;19.50;99.90
57108;DHT22;42987;52.916;6.542;2022-07-31T13:33:14;19.50;99.90
57108;DHT22;42987;52.916;6.542;2022-07-31T13:35:43;19.50;99.90
57108;DHT22;42987;52.916;6.542;2022-07-31T13:38:09;19.50;99.90
57108;DHT22;42987;52.916;6.542;2022-07-31T13:40:34;19.50;99.90
57108;DHT22;42987;52.916;6.542;2022-07-31T13:43:18;19.50;99.90
57108;DHT22;42987;52.916;6.542;2022-07-31T13:45:44;19.50;99.90
57108;DHT22;42987;52.916;6.542;2022-07-31T13:48:10;19.50;99.90
57108;DHT22;42987;52.916;6.542;2022-07-31T13:50:37;19.50;99.90
57108;DHT22;42987;52.916;6.542;2022-07-31T13:53:04;19.50;99.90
57108;DHT22;42987;52.916;6.542;2022-07-31T13:55:30;19.60;99.90
57108;DHT22;42987;52.916;6.542;2022-07-31T13:57:55;19.70;99.90
57108;DHT22;42987;52.916;6.542;2022-07-31T14:00:21;19.80;99.90
57108;DHT22;42987;52.916;6.542;2022-07-31T14:02:47;20.10;99.90
57108;DHT22;42987;52.916;6.542;2022-07-31T14:05:17;20.30;99.90
57108;DHT22;42987;52.916;6.542;2022-07-31T14:07:43;20.60;99.90
57108;DHT22;42987;52.916;6.542;2022-07-31T14:10:09;20.70;99.90
57108;DHT22;42987;52.916;6.542;2022-07-31T14:12:35;20.80;99.90
57108;DHT22;42987;52.916;6.542;2022-07-31T14:15:01;20.80;99.90
57108;DHT22;42987;52.916;6.542;2022-07-31T14:17:28;20.80;99.90
57108;DHT22;42987;52.916;6.542;2022-07-31T14:19:54;20.80;99.90
57108;DHT22;42987;52.916;6.542;2022-07-31T14:22:20;20.80;99.90
57108;DHT22;42987;52.916;6.542;2022-07-31T14:24:46;20.80;99.90
57108;DHT22;42987;52.916;6.542;2022-07-31T14:27:11;20.70;99.90
57108;DHT22;42987;52.916;6.542;2022-07-31T14:29:37;20.70;99.90
57108;DHT22;42987;52.916;6.542;2022-07-31T14:32:03;20.70;99.90
57108;DHT22;42987;52.916;6.542;2022-07-31T14:34:29;20.70;99.90
57108;DHT22;42987;52.916;6.542;2022-07-31T14:36:55;20.60;99.90
57108;DHT22;42987;52.916;6.542;2022-07-31T14:39:24;20.70;99.90
57108;DHT22;42987;52.916;6.542;2022-07-31T14:41:49;20.70;99.90
57108;DHT22;42987;52.916;6.542;2022-07-31T14:44:15;20.70;99.90
57108;DHT22;42987;52.916;6.542;2022-07-31T14:46:41;20.80;99.90
57108;DHT22;42987;52.916;6.542;2022-07-31T14:49:07;20.90;99.90
57108;DHT22;42987;52.916;6.542;2022-07-31T14:51:33;21.00;99.90
57108;DHT22;42987;52.916;6.542;2022-07-31T14:53:59;21.00;99.90
57108;DHT22;42987;52.916;6.542;2022-07-31T14:56:25;21.00;99.90
57108;DHT22;42987;52.916;6.542;2022-07-31T14:58:51;20.90;99.90
57108;DHT22;42987;52.916;6.542;2022-07-31T15:01:17;21.00;99.90
57108;DHT22;42987;52.916;6.542;2022-07-31T15:03:42;21.00;99.90
57108;DHT22;42987;52.916;6.542;2022-07-31T15:06:08;21.10;99.90
57108;DHT22;42987;52.916;6.542;2022-07-31T15:08:34;21.10;99.90
57108;DHT22;42987;52.916;6.542;2022-07-31T15:11:04;21.10;99.90
57108;DHT22;42987;52.916;6.542;2022-07-31T15:13:30;21.20;99.90
57108;DHT22;42987;52.916;6.542;2022-07-31T15:15:56;21.20;99.90
57108;DHT22;42987;52.916;6.542;2022-07-31T15:18:21;21.30;99.90
57108;DHT22;42987;52.916;6.542;2022-07-31T15:20:47;21.30;99.90
57108;DHT22;42987;52.916;6.542;2022-07-31T15:23:13;21.30;99.90
57108;DHT22;42987;52.916;6.542;2022-07-31T15:25:39;21.30;99.90
57108;DHT22;42987;52.916;6.542;2022-07-31T15:28:07;21.20;99.90
57108;DHT22;42987;52.916;6.542;2022-07-31T15:30:33;21.20;99.90
57108;DHT22;42987;52.916;6.542;2022-07-31T15:32:59;21.10;99.90
57108;DHT22;42987;52.916;6.542;2022-07-31T15:35:28;21.00;99.90
57108;DHT22;42987;52.916;6.542;2022-07-31T15:37:54;21.00;99.90
57108;DHT22;42987;52.916;6.542;2022-07-31T15:40:20;20.90;99.90
57108;DHT22;42987;52.916;6.542;2022-07-31T15:42:46;20.80;99.90
57108;DHT22;42987;52.916;6.542;2022-07-31T15:45:14;20.80;99.90
57108;DHT22;42987;52.916;6.542;2022-07-31T15:47:41;20.70;99.90
57108;DHT22;42987;52.916;6.542;2022-07-31T15:50:09;20.70;99.90
57108;DHT22;42987;52.916;6.542;2022-07-31T15:52:38;20.60;99.90